createdAt,value
2022-12-01T00:02:14.382Z,23.95
2022-12-01T00:06:20.698Z,26.20
2022-12-01T00:10:28.645Z,28.10
2022-12-01T00:14:30.016Z,28.08
2022-12-01T00:18:31.400Z,24.83
2022-12-01T00:22:32.789Z,27.90
2022-12-01T00:26:34.176Z,26.10
2022-12-01T00:30:35.537Z,26.40
2022-12-01T00:34:37.991Z,25.08
2022-12-01T00:38:39.799Z,28.88
2022-12-01T00:42:41.227Z,32.50
2022-12-01T00:46:42.617Z,29.85
2022-12-01T00:50:44.124Z,30.30
2022-12-01T00:54:46.284Z,31.98
2022-12-01T00:58:47.642Z,31.15
2022-12-01T01:02:49.032Z,33.10
2022-12-01T01:06:50.503Z,34.00
2022-12-01T01:10:51.967Z,30.35
2022-12-01T01:14:53.372Z,27.85
2022-12-01T01:18:55.660Z,29.20
2022-12-01T01:22:57.203Z,28.17
2022-12-01T01:26:59.056Z,30.20
2022-12-01T01:31:05.595Z,28.95
2022-12-01T01:35:08.239Z,27.20
2022-12-01T01:39:09.616Z,26.45
2022-12-01T01:43:16.434Z,31.33
2022-12-01T01:47:20.985Z,25.83
2022-12-01T01:51:27.155Z,32.05
2022-12-01T01:55:29.583Z,27.90
2022-12-01T01:59:34.495Z,30.63
2022-12-01T02:03:37.220Z,25.90
2022-12-01T02:07:39.642Z,28.80
2022-12-01T02:11:48.652Z,28.63
2022-12-01T02:16:10.060Z,24.05
2022-12-01T02:20:29.807Z,29.05
2022-12-01T02:24:58.340Z,30.73
2022-12-01T02:29:08.440Z,24.05
2022-12-01T02:33:51.077Z,34.22
2022-12-01T02:38:11.419Z,30.98
2022-12-01T02:42:37.790Z,27.23
2022-12-01T02:46:46.811Z,27.88
2022-12-01T02:50:48.422Z,33.78
2022-12-01T02:54:50.122Z,24.30
2022-12-01T02:58:51.930Z,25.48
2022-12-01T03:03:50.741Z,31.50
2022-12-01T03:08:13.994Z,31.40
2022-12-01T03:12:53.172Z,27.38
2022-12-01T03:16:54.875Z,30.98
2022-12-01T03:21:00.348Z,34.70
2022-12-01T03:25:03.724Z,28.77
2022-12-01T03:29:25.197Z,31.77
2022-12-01T03:33:32.774Z,26.00
2022-12-01T03:41:46.305Z,30.75
2022-12-01T03:46:09.668Z,29.30
2022-12-01T03:50:14.014Z,27.13
2022-12-01T03:54:39.661Z,32.00
2022-12-01T03:58:43.661Z,30.98
2022-12-01T04:02:45.163Z,25.83
2022-12-01T04:06:48.720Z,30.45
2022-12-01T04:10:50.092Z,27.13
2022-12-01T04:14:51.440Z,33.47
2022-12-01T04:18:52.811Z,28.85
2022-12-01T04:22:54.205Z,28.02
2022-12-01T04:26:55.593Z,27.55
2022-12-01T04:30:57.100Z,29.67
2022-12-01T04:34:58.534Z,29.15
2022-12-01T04:39:00.473Z,34.63
2022-12-01T04:43:01.895Z,30.30
2022-12-01T04:47:04.737Z,32.88
2022-12-01T04:51:07.688Z,29.52
2022-12-01T04:55:09.582Z,31.63
2022-12-01T04:59:11.200Z,33.30
2022-12-01T05:03:15.156Z,30.02
2022-12-01T05:07:18.014Z,31.33
2022-12-01T05:11:19.553Z,31.30
2022-12-01T05:15:20.961Z,27.55
2022-12-01T05:19:40.830Z,35.75
2022-12-01T05:23:42.272Z,28.70
2022-12-01T05:27:43.691Z,31.17
2022-12-01T05:31:46.221Z,29.33
2022-12-01T05:35:48.914Z,33.65
2022-12-01T05:39:50.694Z,33.30
2022-12-01T05:43:52.262Z,31.70
2022-12-01T05:48:00.532Z,26.42
2022-12-01T05:52:01.924Z,28.92
2022-12-01T05:56:03.459Z,33.70
2022-12-01T06:00:06.255Z,25.02
2022-12-01T06:04:08.740Z,31.60
2022-12-01T06:08:10.178Z,27.92
2022-12-01T06:12:11.989Z,33.17
2022-12-01T06:16:13.423Z,29.85
2022-12-01T06:20:14.881Z,34.72
2022-12-01T06:24:16.418Z,37.08
2022-12-01T06:28:18.085Z,35.85
2022-12-01T06:32:19.777Z,37.00
2022-12-01T06:36:21.453Z,40.95
2022-12-01T06:40:23.976Z,33.28
2022-12-01T06:44:25.340Z,38.60
2022-12-01T06:48:26.712Z,36.28
2022-12-01T06:52:28.626Z,33.50
2022-12-01T06:56:30.087Z,32.45
2022-12-01T07:00:31.999Z,36.53
2022-12-01T07:04:33.559Z,38.13
2022-12-01T07:08:35.399Z,46.80
2022-12-01T07:12:37.057Z,38.75
2022-12-01T07:16:38.456Z,42.05
2022-12-01T07:20:39.851Z,38.17
2022-12-01T07:24:41.654Z,42.33
2022-12-01T07:28:43.751Z,37.60
2022-12-01T07:32:45.168Z,40.80
2022-12-01T07:36:46.559Z,40.30
2022-12-01T07:40:48.010Z,38.90
2022-12-01T07:44:49.386Z,33.08
2022-12-01T07:48:52.815Z,41.13
2022-12-01T07:52:54.327Z,38.10
2022-12-01T07:56:59.471Z,43.08
2022-12-01T08:01:09.711Z,42.53
2022-12-01T08:05:11.190Z,39.38
2022-12-01T08:09:12.583Z,37.38
2022-12-01T08:13:17.349Z,34.88
2022-12-01T08:17:19.035Z,39.35
2022-12-01T08:21:22.391Z,39.22
2022-12-01T08:25:23.836Z,35.55
2022-12-01T08:29:25.910Z,34.10
2022-12-01T08:33:28.851Z,36.83
2022-12-01T08:37:30.269Z,42.40
2022-12-01T08:41:31.803Z,41.03
2022-12-01T08:45:33.402Z,38.58
2022-12-01T08:49:35.065Z,34.65
2022-12-01T08:53:42.574Z,37.85
2022-12-01T08:57:47.007Z,35.95
2022-12-01T09:01:54.459Z,38.03
2022-12-01T09:10:02.414Z,33.85
2022-12-01T09:14:04.190Z,34.58
2022-12-01T09:18:06.667Z,38.40
2022-12-01T09:22:08.682Z,40.45
2022-12-01T09:26:13.571Z,39.00
2022-12-01T09:30:15.640Z,38.33
2022-12-01T09:34:23.676Z,31.98
2022-12-01T09:38:25.681Z,39.50
2022-12-01T09:42:35.642Z,33.05
2022-12-01T09:47:04.699Z,34.83
2022-12-01T09:51:06.469Z,35.63
2022-12-01T09:55:13.287Z,38.80
2022-12-01T09:59:22.708Z,31.33
2022-12-01T10:03:45.535Z,34.97
2022-12-01T10:07:54.768Z,33.22
2022-12-01T10:12:27.968Z,30.95
2022-12-01T10:16:47.188Z,33.80
2022-12-01T10:20:57.803Z,37.97
2022-12-01T10:25:28.111Z,39.22
2022-12-01T10:29:47.737Z,34.45
2022-12-01T10:34:02.065Z,36.08
2022-12-01T10:38:16.689Z,32.13
2022-12-01T10:42:29.973Z,35.42
2022-12-01T10:46:46.257Z,35.75
2022-12-01T10:50:55.167Z,33.63
2022-12-01T10:55:02.897Z,38.55
2022-12-01T10:59:12.665Z,37.65
2022-12-01T11:03:43.265Z,39.25
2022-12-01T11:07:50.924Z,38.15
2022-12-01T11:16:06.100Z,32.50
2022-12-01T11:20:28.750Z,38.10
2022-12-01T11:24:44.004Z,35.63
2022-12-01T11:28:57.986Z,35.47
2022-12-01T11:33:03.412Z,35.38
2022-12-01T11:37:08.180Z,31.85
2022-12-01T11:41:27.549Z,40.33
2022-12-01T11:45:34.188Z,33.42
2022-12-01T11:49:46.754Z,34.30
2022-12-01T11:53:51.667Z,33.58
2022-12-01T11:58:04.892Z,34.83
2022-12-01T12:02:18.559Z,29.83
2022-12-01T12:06:43.211Z,33.88
2022-12-01T12:11:16.211Z,35.38
2022-12-01T12:15:55.482Z,29.02
2022-12-01T12:20:15.253Z,31.90
2022-12-01T12:24:41.675Z,30.58
2022-12-01T12:28:53.959Z,30.48
2022-12-01T12:33:16.970Z,32.47
2022-12-01T12:37:44.238Z,33.35
2022-12-01T12:41:46.956Z,36.17
2022-12-01T12:45:58.308Z,32.40
2022-12-01T12:50:12.726Z,35.65
2022-12-01T12:54:27.875Z,39.58
2022-12-01T12:58:35.775Z,35.20
2022-12-01T13:02:47.358Z,35.42
2022-12-01T13:07:00.211Z,31.52
2022-12-01T13:11:10.574Z,34.70
2022-12-01T13:15:20.278Z,26.45
2022-12-01T13:19:33.707Z,27.52
2022-12-01T13:23:35.962Z,30.60
2022-12-01T13:27:40.119Z,29.25
2022-12-01T13:31:48.146Z,30.58
2022-12-01T13:36:22.607Z,27.38
2022-12-01T13:40:30.301Z,30.75
2022-12-01T13:44:36.836Z,28.43
2022-12-01T13:48:40.997Z,28.25
2022-12-01T13:52:49.602Z,27.27
2022-12-01T13:57:01.223Z,31.65
2022-12-01T14:01:21.196Z,31.05
2022-12-01T14:05:22.807Z,26.17
2022-12-01T14:09:30.937Z,28.20
2022-12-01T14:13:44.134Z,29.25
2022-12-01T14:17:45.640Z,31.98
2022-12-01T14:21:49.572Z,33.65
2022-12-01T14:25:59.055Z,33.80
2022-12-01T14:30:38.812Z,30.45
2022-12-01T14:34:40.488Z,28.92
2022-12-01T14:38:42.160Z,30.58
2022-12-01T14:43:03.968Z,30.52
2022-12-01T14:47:11.398Z,30.13
2022-12-01T14:51:18.276Z,28.05
2022-12-01T14:55:22.691Z,44.30
2022-12-01T14:59:26.449Z,30.45
2022-12-01T15:03:33.761Z,28.42
2022-12-01T15:07:40.115Z,25.73
2022-12-01T15:12:03.700Z,25.80
2022-12-01T15:16:14.178Z,31.05
2022-12-01T15:20:47.936Z,29.90
2022-12-01T15:24:49.668Z,32.42
2022-12-01T15:29:25.000Z,27.58
2022-12-01T15:33:37.723Z,30.35
2022-12-01T15:37:42.927Z,29.42
2022-12-01T15:41:48.809Z,34.20
2022-12-01T15:45:57.338Z,32.97
2022-12-01T15:49:58.980Z,26.65
2022-12-01T15:54:03.627Z,28.33
2022-12-01T15:58:08.907Z,28.42
2022-12-01T16:02:23.847Z,28.73
2022-12-01T16:06:30.192Z,31.63
2022-12-01T16:10:34.224Z,30.60
2022-12-01T16:14:36.721Z,30.33
2022-12-01T16:18:38.103Z,32.55
2022-12-01T16:22:39.557Z,27.60
2022-12-01T16:26:48.864Z,33.47
2022-12-01T16:30:51.316Z,35.13
2022-12-01T16:34:54.047Z,28.95
2022-12-01T16:38:55.517Z,28.23
2022-12-01T16:42:57.017Z,32.45
2022-12-01T16:46:58.622Z,34.10
2022-12-01T16:51:02.770Z,29.92
2022-12-01T16:55:04.524Z,31.58
2022-12-01T16:59:05.911Z,32.85
2022-12-01T17:03:07.610Z,33.97
2022-12-01T17:07:09.076Z,35.50
2022-12-01T17:11:10.494Z,38.45
2022-12-01T17:15:11.966Z,40.40
2022-12-01T17:19:13.485Z,34.78
2022-12-01T17:23:14.837Z,40.20
2022-12-01T17:27:16.387Z,38.78
2022-12-01T17:31:17.948Z,36.38
2022-12-01T17:35:19.448Z,35.47
2022-12-01T17:39:21.150Z,36.20
2022-12-01T17:43:23.158Z,34.42
2022-12-01T17:47:24.547Z,32.97
2022-12-01T17:51:28.441Z,34.20
2022-12-01T17:55:31.738Z,36.22
2022-12-01T17:59:42.536Z,30.85
2022-12-01T18:03:48.376Z,33.15
2022-12-01T18:07:50.504Z,34.90
2022-12-01T18:11:54.569Z,34.20
2022-12-01T18:16:02.321Z,32.95
2022-12-01T18:24:31.472Z,33.92
2022-12-01T18:28:36.698Z,36.63
2022-12-01T18:32:40.515Z,34.33
2022-12-01T18:36:43.687Z,35.80
2022-12-01T18:40:51.759Z,34.35
2022-12-01T18:45:08.349Z,39.75
2022-12-01T18:49:09.998Z,36.13
2022-12-01T18:53:11.640Z,38.47
2022-12-01T19:02:36.927Z,33.15
2022-12-01T19:06:39.436Z,33.17
2022-12-01T19:10:40.897Z,35.47
2022-12-01T19:14:42.267Z,33.30
2022-12-01T19:18:44.134Z,32.20
2022-12-01T19:22:46.081Z,32.42
2022-12-01T19:26:47.460Z,37.10
2022-12-01T19:30:49.307Z,35.08
2022-12-01T19:34:50.963Z,32.13
2022-12-01T19:38:53.388Z,37.10
2022-12-01T19:42:54.896Z,33.85
2022-12-01T19:46:56.557Z,36.90
2022-12-01T19:51:04.335Z,40.80
2022-12-01T19:55:06.146Z,37.63
2022-12-01T19:59:08.046Z,40.67
2022-12-01T20:13:53.500Z,38.15
2022-12-01T20:17:55.260Z,41.22
2022-12-01T20:21:56.726Z,38.83
2022-12-01T20:26:00.087Z,34.42
2022-12-01T20:30:01.496Z,36.85
2022-12-01T20:34:06.877Z,38.22
2022-12-01T20:38:08.267Z,41.60
2022-12-01T20:42:10.795Z,39.40
2022-12-01T20:46:13.086Z,42.80
2022-12-01T20:50:14.535Z,41.20
2022-12-01T20:54:32.730Z,39.63
2022-12-01T20:58:37.492Z,39.85
2022-12-01T21:02:39.605Z,42.92
2022-12-01T21:06:41.074Z,37.92
2022-12-01T21:10:44.878Z,36.45
2022-12-01T21:14:57.458Z,39.75
2022-12-01T21:19:11.238Z,43.22
2022-12-01T21:23:15.319Z,38.95
2022-12-01T21:27:17.779Z,41.63
2022-12-01T21:31:19.227Z,41.10
2022-12-01T21:35:23.590Z,40.60
2022-12-01T21:39:26.368Z,40.60
2022-12-01T21:43:32.612Z,41.45
2022-12-01T21:47:36.581Z,43.88
2022-12-01T21:51:38.015Z,40.33
2022-12-01T21:55:40.552Z,39.90
2022-12-01T21:59:41.904Z,40.90
2022-12-01T22:03:45.042Z,42.45
2022-12-01T22:07:46.548Z,40.53
2022-12-01T22:11:52.902Z,44.63
2022-12-01T22:15:55.173Z,37.92
2022-12-01T22:20:17.719Z,40.38
2022-12-01T22:24:24.837Z,37.10
2022-12-01T22:28:26.302Z,42.65
2022-12-01T22:32:35.244Z,42.22
2022-12-01T22:36:36.728Z,41.70
2022-12-01T22:40:40.628Z,44.15
2022-12-01T22:44:45.008Z,40.35
2022-12-01T22:48:55.109Z,44.72
2022-12-01T22:53:06.044Z,46.72
2022-12-01T22:57:25.937Z,44.65
2022-12-01T23:01:33.172Z,41.63
2022-12-01T23:05:34.539Z,41.95
2022-12-01T23:09:41.989Z,43.35
2022-12-01T23:13:45.552Z,40.30
2022-12-01T23:17:47.352Z,50.67
2022-12-01T23:21:48.758Z,45.80
2022-12-01T23:25:50.568Z,48.58
2022-12-01T23:29:53.878Z,48.15
2022-12-01T23:33:55.247Z,42.17
2022-12-01T23:37:58.037Z,46.10
2022-12-01T23:41:59.633Z,42.97
2022-12-01T23:46:07.601Z,48.35
2022-12-01T23:50:21.659Z,45.47
2022-12-01T23:54:29.799Z,48.20
2022-12-01T23:58:31.298Z,44.88
